sensor_id;sensor_type;location;lat;lon;timestamp;temperature;humidity
72883;DHT22;61017;37.812;-122.286;2023-02-11T00:00:58;15.00;79.50
72883;DHT22;61017;37.812;-122.286;2023-02-11T00:02:30;15.00;79.40
72883;DHT22;61017;37.812;-122.286;2023-02-11T00:04:02;15.00;79.40
72883;DHT22;61017;37.812;-122.286;2023-02-11T00:05:33;15.00;79.50
72883;DHT22;61017;37.812;-122.286;2023-02-11T00:07:04;15.00;79.40
72883;DHT22;61017;37.812;-122.286;2023-02-11T00:08:36;15.00;79.70
72883;DHT22;61017;37.812;-122.286;2023-02-11T00:10:07;15.00;79.10
72883;DHT22;61017;37.812;-122.286;2023-02-11T00:11:38;15.00;78.80
72883;DHT22;61017;37.812;-122.286;2023-02-11T00:13:09;15.00;79.10
72883;DHT22;61017;37.812;-122.286;2023-02-11T00:14:40;15.00;79.20
72883;DHT22;61017;37.812;-122.286;2023-02-11T00:16:15;15.00;79.30
72883;DHT22;61017;37.812;-122.286;2023-02-11T00:17:47;15.00;79.40
72883;DHT22;61017;37.812;-122.286;2023-02-11T00:19:18;15.00;79.40
72883;DHT22;61017;37.812;-122.286;2023-02-11T00:20:49;15.00;79.40
72883;DHT22;61017;37.812;-122.286;2023-02-11T00:22:20;15.00;79.20
72883;DHT22;61017;37.812;-122.286;2023-02-11T00:23:51;15.00;79.00
72883;DHT22;61017;37.812;-122.286;2023-02-11T00:25:22;15.00;79.20
72883;DHT22;61017;37.812;-122.286;2023-02-11T00:26:53;14.90;78.70
72883;DHT22;61017;37.812;-122.286;2023-02-11T00:28:25;14.90;78.40
72883;DHT22;61017;37.812;-122.286;2023-02-11T00:29:56;14.90;78.50
72883;DHT22;61017;37.812;-122.286;2023-02-11T00:31:27;15.00;78.50
72883;DHT22;61017;37.812;-122.286;2023-02-11T00:32:58;15.00;78.80
72883;DHT22;61017;37.812;-122.286;2023-02-11T00:34:32;14.90;78.30
72883;DHT22;61017;37.812;-122.286;2023-02-11T00:36:04;14.90;78.20
72883;DHT22;61017;37.812;-122.286;2023-02-11T00:37:36;14.90;78.20
72883;DHT22;61017;37.812;-122.286;2023-02-11T00:39:07;14.90;78.30
72883;DHT22;61017;37.812;-122.286;2023-02-11T00:40:38;14.90;78.40
72883;DHT22;61017;37.812;-122.286;2023-02-11T00:42:10;14.90;79.10
72883;DHT22;61017;37.812;-122.286;2023-02-11T00:43:44;14.90;78.10
72883;DHT22;61017;37.812;-122.286;2023-02-11T00:45:15;14.90;77.90
72883;DHT22;61017;37.812;-122.286;2023-02-11T00:46:46;14.90;77.80
72883;DHT22;61017;37.812;-122.286;2023-02-11T00:48:17;14.90;78.10
72883;DHT22;61017;37.812;-122.286;2023-02-11T00:49:48;14.90;78.90
72883;DHT22;61017;37.812;-122.286;2023-02-11T00:51:19;14.90;78.00
72883;DHT22;61017;37.812;-122.286;2023-02-11T00:52:50;14.90;78.10
72883;DHT22;61017;37.812;-122.286;2023-02-11T00:54:21;14.90;77.90
72883;DHT22;61017;37.812;-122.286;2023-02-11T00:55:52;14.90;78.00
72883;DHT22;61017;37.812;-122.286;2023-02-11T00:57:23;14.90;77.30
72883;DHT22;61017;37.812;-122.286;2023-02-11T00:58:54;14.90;77.60
72883;DHT22;61017;37.812;-122.286;2023-02-11T01:00:26;14.90;77.80
72883;DHT22;61017;37.812;-122.286;2023-02-11T01:01:57;14.90;77.70
72883;DHT22;61017;37.812;-122.286;2023-02-11T01:03:28;14.90;77.80
72883;DHT22;61017;37.812;-122.286;2023-02-11T01:04:59;14.90;77.80
72883;DHT22;61017;37.812;-122.286;2023-02-11T01:06:30;14.90;77.80
72883;DHT22;61017;37.812;-122.286;2023-02-11T01:08:02;14.90;77.70
72883;DHT22;61017;37.812;-122.286;2023-02-11T01:09:33;14.90;77.80
72883;DHT22;61017;37.812;-122.286;2023-02-11T01:11:05;14.90;77.90
72883;DHT22;61017;37.812;-122.286;2023-02-11T01:12:37;14.90;78.30
72883;DHT22;61017;37.812;-122.286;2023-02-11T01:14:08;14.90;77.90
72883;DHT22;61017;37.812;-122.286;2023-02-11T01:15:39;14.90;78.00
72883;DHT22;61017;37.812;-122.286;2023-02-11T01:17:10;14.90;77.90
72883;DHT22;61017;37.812;-122.286;2023-02-11T01:18:42;14.90;78.00
72883;DHT22;61017;37.812;-122.286;2023-02-11T01:20:15;14.90;78.10
72883;DHT22;61017;37.812;-122.286;2023-02-11T01:21:46;14.90;78.20
72883;DHT22;61017;37.812;-122.286;2023-02-11T01:23:17;14.90;78.30
72883;DHT22;61017;37.812;-122.286;2023-02-11T01:24:48;14.90;78.00
72883;DHT22;61017;37.812;-122.286;2023-02-11T01:26:19;14.90;78.30
72883;DHT22;61017;37.812;-122.286;2023-02-11T01:27:51;14.90;78.30
72883;DHT22;61017;37.812;-122.286;2023-02-11T01:29:22;14.90;78.30
72883;DHT22;61017;37.812;-122.286;2023-02-11T01:30:53;14.90;78.30
72883;DHT22;61017;37.812;-122.286;2023-02-11T01:32:24;14.90;78.10
72883;DHT22;61017;37.812;-122.286;2023-02-11T01:33:55;14.90;78.30
72883;DHT22;61017;37.812;-122.286;2023-02-11T01:35:26;14.90;78.30
72883;DHT22;61017;37.812;-122.286;2023-02-11T01:36:58;14.90;78.10
72883;DHT22;61017;37.812;-122.286;2023-02-11T01:38:30;14.90;78.10
72883;DHT22;61017;37.812;-122.286;2023-02-11T01:40:02;14.80;77.80
72883;DHT22;61017;37.812;-122.286;2023-02-11T01:41:33;14.80;77.60
72883;DHT22;61017;37.812;-122.286;2023-02-11T01:43:04;14.90;77.60
72883;DHT22;61017;37.812;-122.286;2023-02-11T01:44:37;14.90;77.70
72883;DHT22;61017;37.812;-122.286;2023-02-11T01:48:48;14.80;77.40
72883;DHT22;61017;37.812;-122.286;2023-02-11T01:50:11;14.80;77.20
72883;DHT22;61017;37.812;-122.286;2023-02-11T01:51:45;14.80;77.30
72883;DHT22;61017;37.812;-122.286;2023-02-11T01:53:18;14.90;76.80
72883;DHT22;61017;37.812;-122.286;2023-02-11T01:54:53;14.90;76.80
72883;DHT22;61017;37.812;-122.286;2023-02-11T01:56:25;14.90;76.60
72883;DHT22;61017;37.812;-122.286;2023-02-11T01:57:58;15.00;75.60
72883;DHT22;61017;37.812;-122.286;2023-02-11T01:59:31;15.00;75.30
72883;DHT22;61017;37.812;-122.286;2023-02-11T02:01:03;15.00;75.50
72883;DHT22;61017;37.812;-122.286;2023-02-11T02:02:50;15.00;75.30
72883;DHT22;61017;37.812;-122.286;2023-02-11T02:04:24;15.00;74.30
72883;DHT22;61017;37.812;-122.286;2023-02-11T02:06:02;15.10;73.30
72883;DHT22;61017;37.812;-122.286;2023-02-11T02:07:40;15.10;72.50
72883;DHT22;61017;37.812;-122.286;2023-02-11T02:09:37;15.10;72.80
72883;DHT22;61017;37.812;-122.286;2023-02-11T02:11:06;15.10;71.10
72883;DHT22;61017;37.812;-122.286;2023-02-11T02:12:37;15.10;70.80
72883;DHT22;61017;37.812;-122.286;2023-02-11T02:14:11;15.10;70.50
72883;DHT22;61017;37.812;-122.286;2023-02-11T02:16:04;15.10;70.40
72883;DHT22;61017;37.812;-122.286;2023-02-11T02:17:37;15.10;71.00
72883;DHT22;61017;37.812;-122.286;2023-02-11T02:26:26;15.20;70.50
72883;DHT22;61017;37.812;-122.286;2023-02-11T02:34:58;15.30;70.60
72883;DHT22;61017;37.812;-122.286;2023-02-11T02:38:06;15.20;71.40
72883;DHT22;61017;37.812;-122.286;2023-02-11T02:39:38;15.30;70.10
72883;DHT22;61017;37.812;-122.286;2023-02-11T02:41:10;15.30;70.70
72883;DHT22;61017;37.812;-122.286;2023-02-11T02:42:42;15.30;70.70
72883;DHT22;61017;37.812;-122.286;2023-02-11T02:44:14;15.30;70.70
72883;DHT22;61017;37.812;-122.286;2023-02-11T02:45:45;15.30;70.60
72883;DHT22;61017;37.812;-122.286;2023-02-11T02:47:16;15.30;70.60
72883;DHT22;61017;37.812;-122.286;2023-02-11T02:48:47;15.30;70.70
72883;DHT22;61017;37.812;-122.286;2023-02-11T02:50:20;15.30;70.80
72883;DHT22;61017;37.812;-122.286;2023-02-11T02:53:31;15.30;70.70
72883;DHT22;61017;37.812;-122.286;2023-02-11T02:55:17;15.30;69.10
72883;DHT22;61017;37.812;-122.286;2023-02-11T02:58:53;15.40;70.50
72883;DHT22;61017;37.812;-122.286;2023-02-11T03:00:34;15.30;70.20
72883;DHT22;61017;37.812;-122.286;2023-02-11T03:05:47;15.30;69.70
72883;DHT22;61017;37.812;-122.286;2023-02-11T03:07:20;15.30;70.10
72883;DHT22;61017;37.812;-122.286;2023-02-11T03:08:56;15.40;69.40
72883;DHT22;61017;37.812;-122.286;2023-02-11T03:10:51;15.40;68.30
72883;DHT22;61017;37.812;-122.286;2023-02-11T03:12:20;15.40;69.00
72883;DHT22;61017;37.812;-122.286;2023-02-11T03:13:53;15.30;69.30
72883;DHT22;61017;37.812;-122.286;2023-02-11T03:15:26;15.30;68.10
72883;DHT22;61017;37.812;-122.286;2023-02-11T03:16:58;15.40;69.20
72883;DHT22;61017;37.812;-122.286;2023-02-11T03:18:30;15.40;69.20
72883;DHT22;61017;37.812;-122.286;2023-02-11T03:20:04;15.40;69.00
72883;DHT22;61017;37.812;-122.286;2023-02-11T03:21:36;15.40;68.90
72883;DHT22;61017;37.812;-122.286;2023-02-11T03:23:15;15.30;69.30
72883;DHT22;61017;37.812;-122.286;2023-02-11T03:24:48;15.30;67.70
72883;DHT22;61017;37.812;-122.286;2023-02-11T03:26:24;15.30;68.50
72883;DHT22;61017;37.812;-122.286;2023-02-11T03:28:03;15.30;69.00
72883;DHT22;61017;37.812;-122.286;2023-02-11T03:30:10;15.30;67.80
72883;DHT22;61017;37.812;-122.286;2023-02-11T03:31:47;15.40;67.80
72883;DHT22;61017;37.812;-122.286;2023-02-11T03:33:28;15.40;67.90
72883;DHT22;61017;37.812;-122.286;2023-02-11T03:35:07;15.40;69.00
72883;DHT22;61017;37.812;-122.286;2023-02-11T03:38:18;15.40;68.80
72883;DHT22;61017;37.812;-122.286;2023-02-11T03:39:54;15.40;68.60
72883;DHT22;61017;37.812;-122.286;2023-02-11T03:41:26;15.40;68.40
72883;DHT22;61017;37.812;-122.286;2023-02-11T03:42:59;15.40;68.30
72883;DHT22;61017;37.812;-122.286;2023-02-11T03:44:35;15.40;68.60
72883;DHT22;61017;37.812;-122.286;2023-02-11T03:46:07;15.40;68.90
72883;DHT22;61017;37.812;-122.286;2023-02-11T03:47:40;15.40;68.50
72883;DHT22;61017;37.812;-122.286;2023-02-11T03:49:13;15.40;68.90
72883;DHT22;61017;37.812;-122.286;2023-02-11T03:50:46;15.40;67.90
72883;DHT22;61017;37.812;-122.286;2023-02-11T03:52:18;15.40;68.10
72883;DHT22;61017;37.812;-122.286;2023-02-11T03:53:50;15.40;67.90
72883;DHT22;61017;37.812;-122.286;2023-02-11T03:55:22;15.40;68.00
72883;DHT22;61017;37.812;-122.286;2023-02-11T03:56:54;15.40;68.20
72883;DHT22;61017;37.812;-122.286;2023-02-11T03:58:26;15.40;68.00
72883;DHT22;61017;37.812;-122.286;2023-02-11T03:59:57;15.40;68.60
72883;DHT22;61017;37.812;-122.286;2023-02-11T04:01:28;15.40;69.00
72883;DHT22;61017;37.812;-122.286;2023-02-11T04:03:00;15.40;69.00
72883;DHT22;61017;37.812;-122.286;2023-02-11T04:04:31;15.40;68.00
72883;DHT22;61017;37.812;-122.286;2023-02-11T04:06:02;15.40;67.90
72883;DHT22;61017;37.812;-122.286;2023-02-11T04:07:33;15.40;68.60
72883;DHT22;61017;37.812;-122.286;2023-02-11T04:09:04;15.40;68.10
72883;DHT22;61017;37.812;-122.286;2023-02-11T04:10:35;15.40;68.50
72883;DHT22;61017;37.812;-122.286;2023-02-11T04:12:06;15.40;68.40
72883;DHT22;61017;37.812;-122.286;2023-02-11T04:13:38;15.40;68.70
72883;DHT22;61017;37.812;-122.286;2023-02-11T04:15:09;15.40;68.30
72883;DHT22;61017;37.812;-122.286;2023-02-11T04:16:40;15.40;68.20
72883;DHT22;61017;37.812;-122.286;2023-02-11T04:18:11;15.40;67.80
72883;DHT22;61017;37.812;-122.286;2023-02-11T04:19:42;15.40;68.20
72883;DHT22;61017;37.812;-122.286;2023-02-11T04:21:13;15.40;68.30
72883;DHT22;61017;37.812;-122.286;2023-02-11T04:22:44;15.40;68.00
72883;DHT22;61017;37.812;-122.286;2023-02-11T04:24:15;15.40;68.70
72883;DHT22;61017;37.812;-122.286;2023-02-11T04:25:47;15.40;68.80
72883;DHT22;61017;37.812;-122.286;2023-02-11T04:27:18;15.40;68.60
72883;DHT22;61017;37.812;-122.286;2023-02-11T04:28:49;15.40;68.50
72883;DHT22;61017;37.812;-122.286;2023-02-11T04:30:20;15.40;68.60
72883;DHT22;61017;37.812;-122.286;2023-02-11T04:31:51;15.40;67.60
72883;DHT22;61017;37.812;-122.286;2023-02-11T04:33:23;15.40;68.10
72883;DHT22;61017;37.812;-122.286;2023-02-11T04:34:54;15.40;68.10
72883;DHT22;61017;37.812;-122.286;2023-02-11T04:36:25;15.40;68.40
72883;DHT22;61017;37.812;-122.286;2023-02-11T04:37:56;15.40;67.90
72883;DHT22;61017;37.812;-122.286;2023-02-11T04:39:27;15.40;68.50
72883;DHT22;61017;37.812;-122.286;2023-02-11T04:40:58;15.40;68.20
72883;DHT22;61017;37.812;-122.286;2023-02-11T04:42:29;15.40;68.50
72883;DHT22;61017;37.812;-122.286;2023-02-11T04:44:00;15.40;68.30
72883;DHT22;61017;37.812;-122.286;2023-02-11T04:45:32;15.40;67.90
72883;DHT22;61017;37.812;-122.286;2023-02-11T04:47:03;15.40;67.10
72883;DHT22;61017;37.812;-122.286;2023-02-11T04:48:34;15.40;68.20
72883;DHT22;61017;37.812;-122.286;2023-02-11T04:50:05;15.40;67.00
72883;DHT22;61017;37.812;-122.286;2023-02-11T04:51:36;15.40;67.50
72883;DHT22;61017;37.812;-122.286;2023-02-11T04:53:07;15.40;68.60
72883;DHT22;61017;37.812;-122.286;2023-02-11T04:54:38;15.40;69.80
72883;DHT22;61017;37.812;-122.286;2023-02-11T04:56:10;15.40;70.40
72883;DHT22;61017;37.812;-122.286;2023-02-11T04:57:41;15.30;70.60
72883;DHT22;61017;37.812;-122.286;2023-02-11T04:59:12;15.30;70.20
72883;DHT22;61017;37.812;-122.286;2023-02-11T05:00:43;15.30;70.60
72883;DHT22;61017;37.812;-122.286;2023-02-11T05:02:14;15.30;70.70
72883;DHT22;61017;37.812;-122.286;2023-02-11T05:04:00;15.20;70.70
72883;DHT22;61017;37.812;-122.286;2023-02-11T05:05:31;15.20;71.40
72883;DHT22;61017;37.812;-122.286;2023-02-11T05:07:03;15.20;70.60
72883;DHT22;61017;37.812;-122.286;2023-02-11T05:08:34;15.20;70.70
72883;DHT22;61017;37.812;-122.286;2023-02-11T05:10:05;15.20;70.60
72883;DHT22;61017;37.812;-122.286;2023-02-11T05:11:36;15.20;71.30
72883;DHT22;61017;37.812;-122.286;2023-02-11T05:13:07;15.20;71.60
72883;DHT22;61017;37.812;-122.286;2023-02-11T05:14:38;15.20;71.10
72883;DHT22;61017;37.812;-122.286;2023-02-11T05:16:09;15.20;71.60
72883;DHT22;61017;37.812;-122.286;2023-02-11T05:17:40;15.20;71.10
72883;DHT22;61017;37.812;-122.286;2023-02-11T05:19:11;15.10;71.00
72883;DHT22;61017;37.812;-122.286;2023-02-11T05:20:43;15.10;70.80
72883;DHT22;61017;37.812;-122.286;2023-02-11T05:22:14;15.10;71.20
72883;DHT22;61017;37.812;-122.286;2023-02-11T05:23:45;15.10;71.20
72883;DHT22;61017;37.812;-122.286;2023-02-11T05:25:16;15.10;71.50
72883;DHT22;61017;37.812;-122.286;2023-02-11T05:26:47;15.10;72.10
72883;DHT22;61017;37.812;-122.286;2023-02-11T05:28:18;15.10;71.80
72883;DHT22;61017;37.812;-122.286;2023-02-11T05:29:49;15.10;71.70
72883;DHT22;61017;37.812;-122.286;2023-02-11T05:31:21;15.10;72.10
72883;DHT22;61017;37.812;-122.286;2023-02-11T05:32:52;15.10;72.20
72883;DHT22;61017;37.812;-122.286;2023-02-11T05:34:23;15.10;73.30
72883;DHT22;61017;37.812;-122.286;2023-02-11T05:36:01;15.00;72.20
72883;DHT22;61017;37.812;-122.286;2023-02-11T05:37:32;15.10;72.50
72883;DHT22;61017;37.812;-122.286;2023-02-11T05:39:03;15.10;72.90
72883;DHT22;61017;37.812;-122.286;2023-02-11T05:40:35;15.10;72.60
72883;DHT22;61017;37.812;-122.286;2023-02-11T05:42:06;15.10;73.30
72883;DHT22;61017;37.812;-122.286;2023-02-11T05:43:37;15.00;72.60
72883;DHT22;61017;37.812;-122.286;2023-02-11T05:45:08;15.00;72.50
72883;DHT22;61017;37.812;-122.286;2023-02-11T05:46:39;15.00;72.70
72883;DHT22;61017;37.812;-122.286;2023-02-11T05:48:10;15.00;72.60
72883;DHT22;61017;37.812;-122.286;2023-02-11T05:49:41;15.00;72.90
72883;DHT22;61017;37.812;-122.286;2023-02-11T05:51:12;15.00;72.90
72883;DHT22;61017;37.812;-122.286;2023-02-11T05:52:43;15.00;72.50
72883;DHT22;61017;37.812;-122.286;2023-02-11T05:54:14;15.00;72.50
72883;DHT22;61017;37.812;-122.286;2023-02-11T05:55:45;15.00;72.60
72883;DHT22;61017;37.812;-122.286;2023-02-11T05:57:16;15.00;72.40
72883;DHT22;61017;37.812;-122.286;2023-02-11T05:58:47;15.00;73.10
72883;DHT22;61017;37.812;-122.286;2023-02-11T06:00:19;15.00;73.00
72883;DHT22;61017;37.812;-122.286;2023-02-11T06:01:50;15.00;72.70
72883;DHT22;61017;37.812;-122.286;2023-02-11T06:03:21;15.00;72.60
72883;DHT22;61017;37.812;-122.286;2023-02-11T06:04:52;15.00;72.90
72883;DHT22;61017;37.812;-122.286;2023-02-11T06:06:23;15.00;73.00
72883;DHT22;61017;37.812;-122.286;2023-02-11T06:07:54;15.00;73.00
72883;DHT22;61017;37.812;-122.286;2023-02-11T06:09:25;15.00;72.90
72883;DHT22;61017;37.812;-122.286;2023-02-11T06:10:57;15.00;73.10
72883;DHT22;61017;37.812;-122.286;2023-02-11T06:12:28;15.00;73.00
72883;DHT22;61017;37.812;-122.286;2023-02-11T06:13:59;14.90;72.90
72883;DHT22;61017;37.812;-122.286;2023-02-11T06:15:30;15.00;73.10
72883;DHT22;61017;37.812;-122.286;2023-02-11T06:17:02;14.90;72.90
72883;DHT22;61017;37.812;-122.286;2023-02-11T06:18:33;14.90;72.50
72883;DHT22;61017;37.812;-122.286;2023-02-11T06:20:05;14.90;72.60
72883;DHT22;61017;37.812;-122.286;2023-02-11T06:21:37;15.00;72.90
72883;DHT22;61017;37.812;-122.286;2023-02-11T06:23:09;14.90;72.80
72883;DHT22;61017;37.812;-122.286;2023-02-11T06:24:40;14.90;72.80
72883;DHT22;61017;37.812;-122.286;2023-02-11T06:26:15;14.90;72.90
72883;DHT22;61017;37.812;-122.286;2023-02-11T06:27:47;14.90;72.90
72883;DHT22;61017;37.812;-122.286;2023-02-11T06:29:18;14.90;73.00
72883;DHT22;61017;37.812;-122.286;2023-02-11T06:30:49;14.90;73.80
72883;DHT22;61017;37.812;-122.286;2023-02-11T06:32:20;14.90;73.10
72883;DHT22;61017;37.812;-122.286;2023-02-11T06:33:51;14.90;73.20
72883;DHT22;61017;37.812;-122.286;2023-02-11T06:35:22;14.90;73.20
72883;DHT22;61017;37.812;-122.286;2023-02-11T06:36:53;14.90;73.20
72883;DHT22;61017;37.812;-122.286;2023-02-11T06:38:24;14.90;73.30
72883;DHT22;61017;37.812;-122.286;2023-02-11T06:39:55;14.90;73.20
72883;DHT22;61017;37.812;-122.286;2023-02-11T06:41:27;14.90;73.30
72883;DHT22;61017;37.812;-122.286;2023-02-11T06:42:58;14.90;73.40
72883;DHT22;61017;37.812;-122.286;2023-02-11T06:44:29;14.90;73.40
72883;DHT22;61017;37.812;-122.286;2023-02-11T06:46:00;14.90;73.40
72883;DHT22;61017;37.812;-122.286;2023-02-11T06:47:31;14.90;73.50
72883;DHT22;61017;37.812;-122.286;2023-02-11T06:49:02;14.90;73.40
72883;DHT22;61017;37.812;-122.286;2023-02-11T06:50:33;14.90;73.50
72883;DHT22;61017;37.812;-122.286;2023-02-11T06:52:04;14.90;73.60
72883;DHT22;61017;37.812;-122.286;2023-02-11T06:53:36;14.90;73.60
72883;DHT22;61017;37.812;-122.286;2023-02-11T06:55:08;14.90;73.60
72883;DHT22;61017;37.812;-122.286;2023-02-11T06:56:39;14.90;73.70
72883;DHT22;61017;37.812;-122.286;2023-02-11T06:58:10;14.90;73.80
72883;DHT22;61017;37.812;-122.286;2023-02-11T06:59:42;14.90;73.90
72883;DHT22;61017;37.812;-122.286;2023-02-11T07:01:14;14.90;73.90
72883;DHT22;61017;37.812;-122.286;2023-02-11T07:02:45;14.90;73.90
72883;DHT22;61017;37.812;-122.286;2023-02-11T07:04:16;14.90;74.00
72883;DHT22;61017;37.812;-122.286;2023-02-11T07:05:47;14.90;74.10
72883;DHT22;61017;37.812;-122.286;2023-02-11T07:07:18;14.90;74.10
72883;DHT22;61017;37.812;-122.286;2023-02-11T07:08:49;14.90;74.10
72883;DHT22;61017;37.812;-122.286;2023-02-11T07:10:20;14.90;74.10
72883;DHT22;61017;37.812;-122.286;2023-02-11T07:11:51;14.90;74.10
72883;DHT22;61017;37.812;-122.286;2023-02-11T07:13:23;14.90;74.20
72883;DHT22;61017;37.812;-122.286;2023-02-11T07:14:54;14.90;74.40
72883;DHT22;61017;37.812;-122.286;2023-02-11T07:16:25;14.90;74.40
72883;DHT22;61017;37.812;-122.286;2023-02-11T07:17:56;14.90;74.40
72883;DHT22;61017;37.812;-122.286;2023-02-11T07:19:28;14.90;74.40
72883;DHT22;61017;37.812;-122.286;2023-02-11T07:20:59;14.90;74.50
72883;DHT22;61017;37.812;-122.286;2023-02-11T07:22:33;14.90;74.50
72883;DHT22;61017;37.812;-122.286;2023-02-11T07:24:07;14.90;74.50
72883;DHT22;61017;37.812;-122.286;2023-02-11T07:25:38;14.90;74.60
72883;DHT22;61017;37.812;-122.286;2023-02-11T07:27:09;14.90;74.60
72883;DHT22;61017;37.812;-122.286;2023-02-11T07:28:41;14.90;74.50
72883;DHT22;61017;37.812;-122.286;2023-02-11T07:30:12;14.80;74.50
72883;DHT22;61017;37.812;-122.286;2023-02-11T07:31:43;14.80;74.50
72883;DHT22;61017;37.812;-122.286;2023-02-11T07:33:14;14.80;74.60
72883;DHT22;61017;37.812;-122.286;2023-02-11T07:34:45;14.90;74.70
72883;DHT22;61017;37.812;-122.286;2023-02-11T07:36:16;14.80;74.60
72883;DHT22;61017;37.812;-122.286;2023-02-11T07:37:47;14.80;74.70
72883;DHT22;61017;37.812;-122.286;2023-02-11T07:39:19;14.90;74.80
72883;DHT22;61017;37.812;-122.286;2023-02-11T07:40:50;14.90;74.70
72883;DHT22;61017;37.812;-122.286;2023-02-11T07:42:21;14.80;74.70
72883;DHT22;61017;37.812;-122.286;2023-02-11T07:43:52;14.80;74.60
72883;DHT22;61017;37.812;-122.286;2023-02-11T07:45:23;14.80;74.70
72883;DHT22;61017;37.812;-122.286;2023-02-11T07:46:54;14.80;74.70
72883;DHT22;61017;37.812;-122.286;2023-02-11T07:48:25;14.80;74.70
72883;DHT22;61017;37.812;-122.286;2023-02-11T07:49:56;14.80;74.70
72883;DHT22;61017;37.812;-122.286;2023-02-11T07:51:28;14.80;74.70
72883;DHT22;61017;37.812;-122.286;2023-02-11T07:52:59;14.80;75.00
72883;DHT22;61017;37.812;-122.286;2023-02-11T07:54:30;14.90;74.30
72883;DHT22;61017;37.812;-122.286;2023-02-11T07:56:02;14.90;73.20
72883;DHT22;61017;37.812;-122.286;2023-02-11T07:57:33;15.00;73.70
72883;DHT22;61017;37.812;-122.286;2023-02-11T07:59:04;15.00;71.70
72883;DHT22;61017;37.812;-122.286;2023-02-11T08:00:36;15.00;72.20
72883;DHT22;61017;37.812;-122.286;2023-02-11T08:02:07;15.00;72.00
72883;DHT22;61017;37.812;-122.286;2023-02-11T08:03:39;15.00;70.80
72883;DHT22;61017;37.812;-122.286;2023-02-11T08:05:10;15.00;70.60
72883;DHT22;61017;37.812;-122.286;2023-02-11T08:06:43;15.10;70.40
72883;DHT22;61017;37.812;-122.286;2023-02-11T08:08:14;15.10;70.70
72883;DHT22;61017;37.812;-122.286;2023-02-11T08:09:45;15.10;70.50
72883;DHT22;61017;37.812;-122.286;2023-02-11T08:12:47;15.10;70.10
72883;DHT22;61017;37.812;-122.286;2023-02-11T08:14:18;15.10;69.50
72883;DHT22;61017;37.812;-122.286;2023-02-11T08:15:49;15.10;69.40
72883;DHT22;61017;37.812;-122.286;2023-02-11T08:17:20;15.10;70.10
72883;DHT22;61017;37.812;-122.286;2023-02-11T08:18:51;15.10;69.80
72883;DHT22;61017;37.812;-122.286;2023-02-11T08:20:23;15.20;69.30
72883;DHT22;61017;37.812;-122.286;2023-02-11T08:21:54;15.20;69.40
72883;DHT22;61017;37.812;-122.286;2023-02-11T08:23:25;15.20;69.70
72883;DHT22;61017;37.812;-122.286;2023-02-11T08:24:56;15.20;68.80
72883;DHT22;61017;37.812;-122.286;2023-02-11T08:26:28;15.20;68.60
72883;DHT22;61017;37.812;-122.286;2023-02-11T08:27:59;15.20;68.80
72883;DHT22;61017;37.812;-122.286;2023-02-11T08:29:30;15.20;68.30
72883;DHT22;61017;37.812;-122.286;2023-02-11T08:31:08;15.20;68.60
72883;DHT22;61017;37.812;-122.286;2023-02-11T08:32:39;15.20;67.50
72883;DHT22;61017;37.812;-122.286;2023-02-11T08:34:11;15.20;68.60
72883;DHT22;61017;37.812;-122.286;2023-02-11T08:35:42;15.30;68.90
72883;DHT22;61017;37.812;-122.286;2023-02-11T08:37:13;15.30;67.70
72883;DHT22;61017;37.812;-122.286;2023-02-11T08:38:45;15.30;68.20
72883;DHT22;61017;37.812;-122.286;2023-02-11T08:40:16;15.30;67.10
72883;DHT22;61017;37.812;-122.286;2023-02-11T08:41:48;15.30;68.60
72883;DHT22;61017;37.812;-122.286;2023-02-11T08:43:19;15.30;66.70
72883;DHT22;61017;37.812;-122.286;2023-02-11T08:44:50;15.30;67.10
72883;DHT22;61017;37.812;-122.286;2023-02-11T08:46:21;15.30;68.30
72883;DHT22;61017;37.812;-122.286;2023-02-11T08:47:52;15.30;68.10
72883;DHT22;61017;37.812;-122.286;2023-02-11T08:49:23;15.30;68.90
72883;DHT22;61017;37.812;-122.286;2023-02-11T08:50:54;15.30;69.40
72883;DHT22;61017;37.812;-122.286;2023-02-11T08:52:26;15.30;68.70
72883;DHT22;61017;37.812;-122.286;2023-02-11T08:53:57;15.30;69.20
72883;DHT22;61017;37.812;-122.286;2023-02-11T08:55:28;15.30;68.20
72883;DHT22;61017;37.812;-122.286;2023-02-11T08:57:00;15.30;69.10
72883;DHT22;61017;37.812;-122.286;2023-02-11T08:58:31;15.30;68.60
72883;DHT22;61017;37.812;-122.286;2023-02-11T09:00:02;15.30;66.40
72883;DHT22;61017;37.812;-122.286;2023-02-11T09:01:33;15.30;67.60
72883;DHT22;61017;37.812;-122.286;2023-02-11T09:03:05;15.30;68.90
72883;DHT22;61017;37.812;-122.286;2023-02-11T09:04:36;15.30;68.50
72883;DHT22;61017;37.812;-122.286;2023-02-11T09:06:07;15.40;67.80
72883;DHT22;61017;37.812;-122.286;2023-02-11T09:07:39;15.30;68.50
72883;DHT22;61017;37.812;-122.286;2023-02-11T09:09:11;15.40;68.20
72883;DHT22;61017;37.812;-122.286;2023-02-11T09:10:43;15.40;68.60
72883;DHT22;61017;37.812;-122.286;2023-02-11T09:12:14;15.40;69.00
72883;DHT22;61017;37.812;-122.286;2023-02-11T09:13:45;15.40;68.60
72883;DHT22;61017;37.812;-122.286;2023-02-11T09:15:16;15.30;69.30
72883;DHT22;61017;37.812;-122.286;2023-02-11T09:16:47;15.40;67.70
72883;DHT22;61017;37.812;-122.286;2023-02-11T09:18:18;15.40;68.10
72883;DHT22;61017;37.812;-122.286;2023-02-11T09:19:49;15.40;68.20
72883;DHT22;61017;37.812;-122.286;2023-02-11T09:21:20;15.40;67.60
72883;DHT22;61017;37.812;-122.286;2023-02-11T09:22:52;15.40;67.10
72883;DHT22;61017;37.812;-122.286;2023-02-11T09:24:23;15.40;68.20
72883;DHT22;61017;37.812;-122.286;2023-02-11T09:25:54;15.40;67.90
72883;DHT22;61017;37.812;-122.286;2023-02-11T09:27:25;15.40;67.50
72883;DHT22;61017;37.812;-122.286;2023-02-11T09:28:56;15.40;68.20
72883;DHT22;61017;37.812;-122.286;2023-02-11T09:30:27;15.40;68.40
72883;DHT22;61017;37.812;-122.286;2023-02-11T09:31:59;15.40;68.40
72883;DHT22;61017;37.812;-122.286;2023-02-11T09:33:30;15.40;68.70
72883;DHT22;61017;37.812;-122.286;2023-02-11T09:35:01;15.40;66.60
72883;DHT22;61017;37.812;-122.286;2023-02-11T09:36:33;15.40;68.30
72883;DHT22;61017;37.812;-122.286;2023-02-11T09:38:04;15.40;68.40
72883;DHT22;61017;37.812;-122.286;2023-02-11T09:39:35;15.40;67.90
72883;DHT22;61017;37.812;-122.286;2023-02-11T09:41:16;15.40;68.60
72883;DHT22;61017;37.812;-122.286;2023-02-11T09:44:23;15.40;67.90
72883;DHT22;61017;37.812;-122.286;2023-02-11T09:45:54;15.40;67.00